Impacts METAR Board
IDs:

KMCB - McComb/Lewis Fld, MS, US

Updated at: 1500 UTC 15 Oct 2018
Potential Impact None Slight Moderate High
Time 15/03Z 15/04Z 15/05Z 15/06Z 15/07Z 15/08Z 15/09Z 15/10Z 15/11Z 15/12Z 15/13Z 15/14Z 15/15Z
Temp74 72 71 71 69 70 68 70 69 70 71 75 77
Dewpt66 67 67 67 66 67 65 67 66 67 68 70 71
Altim30.00 30.02 30.02 30.01 30.01 30.01 30.00 30.01 30.02 30.03 30.04 30.06 30.07
VIS10 10 10 10 10 6 7 10 4 9 9 10 10
CIG-- -- -- -- -- -- -- -- -- -- 44 -- 48
CoverCLRCLRCLRCLRCLRCLRCLRCLRCLRSCTBKNSCTBKN
FltCatVFRVFRVFRVFRVFRVFRVFRVFRMVFRVFRVFRVFRVFR
WX----------BR----BR--------
WDir1401401401401400150012000160220
WSpd6 5 4 5 4 0 4 0 3 0 0 7 4
WGst-- -- -- -- -- -- -- -- -- -- -- -- --
Raw hourly METARs
KMCB 150253Z AUTO 14006KT 10SM CLR 23/19 A3000 RMK AO2 SLP154 T02330189 51015
KMCB 150353Z AUTO 14005KT 10SM CLR 22/19 A3002 RMK AO2 SLP158 T02220194
KMCB 150453Z AUTO 14004KT 10SM CLR 22/19 A3002 RMK AO2 SLP159 T02170194
KMCB 150553Z AUTO 14005KT 10SM CLR 22/19 A3001 RMK AO2 SLP157 T02170194 10256 20211 403170183 50003
KMCB 150653Z AUTO 14004KT 10SM CLR 21/19 A3001 RMK AO2 SLP156 T02060189
KMCB 150753Z AUTO 00000KT 6SM BR CLR 21/19 A3001 RMK AO2 SLP157 T02110194
KMCB 150853Z AUTO 15004KT 7SM CLR 20/18 A3000 RMK AO2 SLP152 T02000183 58004
KMCB 150953Z AUTO 00000KT 10SM CLR 21/19 A3001 RMK AO2 SLP155 T02110194
KMCB 151053Z AUTO 12003KT 4SM BR CLR 21/19 A3002 RMK AO2 SLP159 T02060189 $
KMCB 151153Z AUTO 00000KT 9SM FEW020 SCT030 21/19 A3003 RMK AO2 SLP164 T02110194 10217 20194 53010 $
KMCB 151253Z AUTO 00000KT 9SM SCT013 SCT023 BKN044 22/20 A3004 RMK AO2 SLP167 T02170200
KMCB 151405Z AUTO 16007KT 10SM FEW007 SCT034 SCT047 24/21 A3006 RMK AO2 T02390211
KMCB 151456Z AUTO 22004KT 10SM SCT009 SCT036 BKN048 25/22 A3007 RMK AO2 T02500217



Page loaded:  15:08 UTC  |   08:08 AM Pacific  |   09:08 AM Mountain  |   10:08 AM Central  |   11:08 AM Eastern

 

ADVISORIES

FORECASTS

FORECASTS

OBSERVATIONS

USER TOOLS

ABOUT US